Time;durP1;ratioP1;P1;durP2;ratioP2;P2;SDS_P1;SDS_P2;PMS_P1;PMS_P2;Temp;Humidity;BMP_temperature;BMP_pressure;BME280_temperature;BME280_humidity;BME280_pressure;Samples;Min_cycle;Max_cycle;Signal;HPM_P1;HPM_P2
2023/06/28 00:00:44;;;;;;;0.00;0.00;;;;;;;;;;1723457;28;20243;-71
2023/06/28 00:01:37;;;;;;;0.00;0.00;;;;;;;;;;1724219;28;20201;-71
2023/06/28 00:02:28;;;;;;;0.00;0.00;;;;;;;;;;1724517;28;20215;-71
2023/06/28 00:03:20;;;;;;;0.00;0.00;;;;;;;;;;1725465;28;20295;-71
2023/06/28 00:04:11;;;;;;;0.00;0.00;;;;;;;;;;1721732;28;20220;-71
2023/06/28 00:05:07;;;;;;;0.00;0.00;;;;;;;;;;1725025;28;20278;-71
2023/06/28 00:05:58;;;;;;;0.00;0.00;;;;;;;;;;1723865;28;20512;-71
2023/06/28 00:06:50;;;;;;;0.00;0.00;;;;;;;;;;1725282;28;20244;-71
2023/06/28 00:07:41;;;;;;;0.00;0.00;;;;;;;;;;1723977;28;20215;-71
2023/06/28 00:08:35;;;;;;;0.00;0.00;;;;;;;;;;1723606;28;20208;-71
2023/06/28 00:09:27;;;;;;;0.00;0.00;;;;;;;;;;1723571;28;20200;-71
2023/06/28 00:10:19;;;;;;;0.00;0.00;;;;;;;;;;1724536;28;20212;-71
2023/06/28 00:11:10;;;;;;;0.00;0.00;;;;;;;;;;1723526;28;20236;-71
2023/06/28 00:12:03;;;;;;;0.00;0.00;;;;;;;;;;1724395;28;20845;-71
2023/06/28 00:12:54;;;;;;;0.00;0.00;;;;;;;;;;1723400;28;20598;-71
2023/06/28 00:13:45;;;;;;;0.00;0.00;;;;;;;;;;1722450;28;20500;-71
2023/06/28 00:14:36;;;;;;;0.00;0.00;;;;;;;;;;1724307;28;20212;-72
2023/06/28 00:15:28;;;;;;;0.00;0.00;;;;;;;;;;1723322;28;20208;-72
2023/06/28 00:16:19;;;;;;;0.00;0.00;;;;;;;;;;1725061;28;20203;-72
2023/06/28 00:17:11;;;;;;;0.00;0.00;;;;;;;;;;1724720;28;20542;-72
2023/06/28 00:18:02;;;;;;;0.00;0.00;;;;;;;;;;1724089;28;20211;-72
2023/06/28 00:19:00;;;;;;;0.00;0.00;;;;;;;;;;1724509;28;20209;-72
2023/06/28 00:19:51;;;;;;;0.00;0.00;;;;;;;;;;1721606;28;20209;-72
2023/06/28 00:20:43;;;;;;;0.00;0.00;;;;;;;;;;1723238;28;20311;-72
2023/06/28 00:21:34;;;;;;;0.00;0.00;;;;;;;;;;1724829;28;20649;-72
2023/06/28 00:22:28;;;;;;;0.00;0.00;;;;;;;;;;1724175;28;20240;-71
2023/06/28 00:23:20;;;;;;;0.00;0.00;;;;;;;;;;1724455;28;20218;-72
2023/06/28 00:24:13;;;;;;;0.00;0.00;;;;;;;;;;1724544;28;20259;-71
2023/06/28 00:25:05;;;;;;;0.00;0.00;;;;;;;;;;1725028;28;20208;-71
2023/06/28 00:25:57;;;;;;;0.00;0.00;;;;;;;;;;1722863;28;20252;-71
2023/06/28 00:26:48;;;;;;;0.00;0.00;;;;;;;;;;1724124;28;20575;-72
2023/06/28 00:27:40;;;;;;;0.00;0.00;;;;;;;;;;1724668;28;20211;-72
2023/06/28 00:28:31;;;;;;;0.00;0.00;;;;;;;;;;1723694;28;20204;-72
2023/06/28 00:29:23;;;;;;;0.00;0.00;;;;;;;;;;1723138;28;20511;-72
2023/06/28 00:30:14;;;;;;;0.00;0.00;;;;;;;;;;1721850;28;20299;-72
2023/06/28 00:31:06;;;;;;;0.00;0.00;;;;;;;;;;1723185;28;20227;-72
2023/06/28 00:31:57;;;;;;;0.00;0.00;;;;;;;;;;1724359;28;20219;-72
2023/06/28 00:32:49;;;;;;;0.00;0.00;;;;;;;;;;1724569;28;20814;-72
2023/06/28 00:33:41;;;;;;;0.00;0.00;;;;;;;;;;1722530;28;20209;-72
2023/06/28 00:34:33;;;;;;;0.00;0.00;;;;;;;;;;1724351;28;20207;-72
2023/06/28 00:35:24;;;;;;;0.00;0.00;;;;;;;;;;1723373;28;20220;-72
2023/06/28 00:36:16;;;;;;;0.00;0.00;;;;;;;;;;1725047;28;20378;-72
2023/06/28 00:37:07;;;;;;;0.00;0.00;;;;;;;;;;1724920;28;20687;-72
2023/06/28 00:37:59;;;;;;;0.00;0.00;;;;;;;;;;1722636;28;20558;-72
2023/06/28 00:38:50;;;;;;;0.00;0.00;;;;;;;;;;1722313;28;20213;-72
2023/06/28 00:39:43;;;;;;;0.00;0.00;;;;;;;;;;1724576;28;20592;-72
2023/06/28 00:40:34;;;;;;;0.00;0.00;;;;;;;;;;1723391;28;20305;-72
2023/06/28 00:41:26;;;;;;;0.00;0.00;;;;;;;;;;1724506;28;20267;-72
2023/06/28 00:42:17;;;;;;;0.00;0.00;;;;;;;;;;1725058;28;20270;-72
2023/06/28 00:43:09;;;;;;;0.00;0.00;;;;;;;;;;1724120;28;20309;-72
2023/06/28 00:44:00;;;;;;;0.00;0.00;;;;;;;;;;1722183;28;20212;-72
2023/06/28 00:44:52;;;;;;;0.00;0.00;;;;;;;;;;1721219;28;20279;-72
2023/06/28 00:45:43;;;;;;;0.00;0.00;;;;;;;;;;1722823;28;20334;-72
2023/06/28 00:46:35;;;;;;;0.00;0.00;;;;;;;;;;1724159;28;20206;-72
2023/06/28 00:47:27;;;;;;;0.00;0.00;;;;;;;;;;1724634;28;20546;-72
2023/06/28 00:48:19;;;;;;;0.00;0.00;;;;;;;;;;1724737;28;20428;-72
2023/06/28 00:49:10;;;;;;;0.00;0.00;;;;;;;;;;1721967;28;20212;-72
2023/06/28 00:50:05;;;;;;;0.00;0.00;;;;;;;;;;1724611;28;20210;-72
2023/06/28 00:50:56;;;;;;;0.00;0.00;;;;;;;;;;1722757;28;20308;-72
2023/06/28 00:51:48;;;;;;;0.00;0.00;;;;;;;;;;1724226;28;20219;-72
2023/06/28 00:52:39;;;;;;;0.00;0.00;;;;;;;;;;1724801;28;20208;-72
2023/06/28 00:53:31;;;;;;;0.00;0.00;;;;;;;;;;1724971;28;20680;-72
2023/06/28 00:54:23;;;;;;;0.00;0.00;;;;;;;;;;1724320;28;20288;-72
2023/06/28 00:55:16;;;;;;;0.00;0.00;;;;;;;;;;1725036;28;20277;-72
2023/06/28 00:56:08;;;;;;;0.00;0.00;;;;;;;;;;1722930;28;20301;-72
2023/06/28 00:57:00;;;;;;;0.00;0.00;;;;;;;;;;1724886;28;20203;-72
2023/06/28 00:57:51;;;;;;;0.00;0.00;;;;;;;;;;1724591;28;20301;-72
2023/06/28 00:58:43;;;;;;;0.00;0.00;;;;;;;;;;1722318;28;20209;-72
2023/06/28 00:59:35;;;;;;;0.00;0.00;;;;;;;;;;1723166;28;20202;-72
2023/06/28 01:00:27;;;;;;;0.00;0.00;;;;;;;;;;1722758;28;20202;-72
2023/06/28 01:01:18;;;;;;;0.00;0.00;;;;;;;;;;1724076;28;20236;-72
2023/06/28 01:02:10;;;;;;;0.00;0.00;;;;;;;;;;1724610;28;20215;-72
2023/06/28 01:03:01;;;;;;;0.00;0.00;;;;;;;;;;1724551;28;20254;-72
2023/06/28 01:03:53;;;;;;;0.00;0.00;;;;;;;;;;1722151;28;20500;-72
2023/06/28 01:04:44;;;;;;;0.00;0.00;;;;;;;;;;1724328;28;21086;-73
2023/06/28 01:05:36;;;;;;;0.00;0.00;;;;;;;;;;1724009;28;20615;-72
2023/06/28 01:06:31;;;;;;;0.00;0.00;;;;;;;;;;1725541;28;20286;-72
2023/06/28 01:07:23;;;;;;;0.00;0.00;;;;;;;;;;1720814;28;20662;-71
2023/06/28 01:08:14;;;;;;;0.00;0.00;;;;;;;;;;1724617;28;20277;-72
2023/06/28 01:09:08;;;;;;;0.00;0.00;;;;;;;;;;1721771;28;20216;-72
2023/06/28 01:09:59;;;;;;;0.00;0.00;;;;;;;;;;1724494;28;20217;-72
2023/06/28 01:10:53;;;;;;;0.00;0.00;;;;;;;;;;1722861;28;20223;-72
2023/06/28 01:11:44;;;;;;;0.00;0.00;;;;;;;;;;1723707;28;20339;-71
2023/06/28 01:12:36;;;;;;;0.00;0.00;;;;;;;;;;1723911;28;20205;-71
2023/06/28 01:13:28;;;;;;;0.00;0.00;;;;;;;;;;1724874;28;20237;-72
2023/06/28 01:14:20;;;;;;;0.00;0.00;;;;;;;;;;1724753;28;20237;-72
2023/06/28 01:15:11;;;;;;;0.00;0.00;;;;;;;;;;1725071;28;20635;-71
2023/06/28 01:16:04;;;;;;;0.00;0.00;;;;;;;;;;1722627;28;20245;-71
2023/06/28 01:16:55;;;;;;;0.00;0.00;;;;;;;;;;1722011;28;20271;-71
2023/06/28 01:17:47;;;;;;;0.00;0.00;;;;;;;;;;1724346;28;20209;-71
2023/06/28 01:18:39;;;;;;;0.00;0.00;;;;;;;;;;1725113;28;20739;-71
2023/06/28 01:19:32;;;;;;;0.00;0.00;;;;;;;;;;1722629;28;20222;-71
2023/06/28 01:20:23;;;;;;;0.00;0.00;;;;;;;;;;1721477;28;20206;-71
2023/06/28 01:21:15;;;;;;;0.00;0.00;;;;;;;;;;1724378;28;20216;-71
2023/06/28 01:22:09;;;;;;;0.00;0.00;;;;;;;;;;1724579;28;20245;-71
2023/06/28 01:23:03;;;;;;;0.00;0.00;;;;;;;;;;1724375;28;20256;-71
2023/06/28 01:23:54;;;;;;;0.00;0.00;;;;;;;;;;1723376;28;20650;-71
2023/06/28 01:24:46;;;;;;;0.00;0.00;;;;;;;;;;1723136;28;20211;-71
2023/06/28 01:25:37;;;;;;;0.00;0.00;;;;;;;;;;1724182;28;20235;-71
2023/06/28 01:26:30;;;;;;;0.00;0.00;;;;;;;;;;1725947;28;20592;-71
2023/06/28 01:27:21;;;;;;;0.00;0.00;;;;;;;;;;1726241;28;20782;-71
2023/06/28 01:28:13;;;;;;;0.00;0.00;;;;;;;;;;1725742;28;20614;-71
2023/06/28 01:29:05;;;;;;;0.00;0.00;;;;;;;;;;1725753;28;21542;-71
2023/06/28 01:29:58;;;;;;;0.00;0.00;;;;;;;;;;1725594;28;20697;-71
2023/06/28 01:30:49;;;;;;;0.00;0.00;;;;;;;;;;1725872;28;20592;-71
2023/06/28 01:31:41;;;;;;;0.00;0.00;;;;;;;;;;1725972;28;20202;-71
2023/06/28 01:32:32;;;;;;;0.00;0.00;;;;;;;;;;1725614;28;20594;-71
2023/06/28 01:33:24;;;;;;;0.00;0.00;;;;;;;;;;1726333;28;20226;-71
2023/06/28 01:34:15;;;;;;;0.00;0.00;;;;;;;;;;1725394;28;20278;-71
2023/06/28 01:35:08;;;;;;;0.00;0.00;;;;;;;;;;1723514;28;20237;-71
2023/06/28 01:35:59;;;;;;;0.00;0.00;;;;;;;;;;1725221;28;20575;-71
2023/06/28 01:36:52;;;;;;;0.00;0.00;;;;;;;;;;1725916;28;20339;-71
2023/06/28 01:37:43;;;;;;;0.00;0.00;;;;;;;;;;1725346;28;20213;-71
2023/06/28 01:38:38;;;;;;;0.00;0.00;;;;;;;;;;1724972;28;20208;-71
2023/06/28 01:39:29;;;;;;;0.00;0.00;;;;;;;;;;1724895;28;20224;-71
2023/06/28 01:40:22;;;;;;;0.00;0.00;;;;;;;;;;1726504;28;20752;-72
2023/06/28 01:41:13;;;;;;;0.00;0.00;;;;;;;;;;1725365;28;20323;-71
2023/06/28 01:42:05;;;;;;;0.00;0.00;;;;;;;;;;1725363;28;20301;-71
2023/06/28 01:42:56;;;;;;;0.00;0.00;;;;;;;;;;1725700;28;20547;-71
2023/06/28 01:43:49;;;;;;;0.00;0.00;;;;;;;;;;1725838;28;20231;-71
2023/06/28 01:44:40;;;;;;;0.00;0.00;;;;;;;;;;1723598;28;20260;-71
2023/06/28 01:45:32;;;;;;;0.00;0.00;;;;;;;;;;1725221;28;20557;-71
2023/06/28 01:46:23;;;;;;;0.00;0.00;;;;;;;;;;1725917;28;20335;-71
2023/06/28 01:47:15;;;;;;;0.00;0.00;;;;;;;;;;1725721;28;20269;-71
2023/06/28 01:48:06;;;;;;;0.00;0.00;;;;;;;;;;1725511;28;20687;-71
2023/06/28 01:48:58;;;;;;;0.00;0.00;;;;;;;;;;1723525;28;20302;-71
2023/06/28 01:49:49;;;;;;;0.00;0.00;;;;;;;;;;1725849;28;20214;-71
2023/06/28 01:50:41;;;;;;;0.00;0.00;;;;;;;;;;1726211;28;20203;-71
2023/06/28 01:51:34;;;;;;;0.00;0.00;;;;;;;;;;1725268;28;20219;-71
2023/06/28 01:52:26;;;;;;;0.00;0.00;;;;;;;;;;1725939;28;20289;-71
2023/06/28 01:53:17;;;;;;;0.00;0.00;;;;;;;;;;1725616;28;20208;-71
2023/06/28 01:54:10;;;;;;;0.00;0.00;;;;;;;;;;1725763;28;20300;-71
2023/06/28 01:55:03;;;;;;;0.00;0.00;;;;;;;;;;1726140;28;20684;-71
2023/06/28 01:55:55;;;;;;;0.00;0.00;;;;;;;;;;1725552;28;20204;-71
2023/06/28 01:56:46;;;;;;;0.00;0.00;;;;;;;;;;1725360;28;20641;-71
2023/06/28 01:57:38;;;;;;;0.00;0.00;;;;;;;;;;1725627;28;20637;-71
2023/06/28 01:58:29;;;;;;;0.00;0.00;;;;;;;;;;1725214;28;20211;-71
2023/06/28 01:59:21;;;;;;;0.00;0.00;;;;;;;;;;1723491;28;20232;-71
2023/06/28 02:00:12;;;;;;;0.00;0.00;;;;;;;;;;1726328;28;20683;-71
2023/06/28 02:01:04;;;;;;;0.00;0.00;;;;;;;;;;1725234;28;20223;-71
2023/06/28 02:01:56;;;;;;;0.00;0.00;;;;;;;;;;1725632;28;20301;-71
2023/06/28 02:02:50;;;;;;;0.00;0.00;;;;;;;;;;1724888;28;20206;-71
2023/06/28 02:03:41;;;;;;;0.00;0.00;;;;;;;;;;1725939;28;20225;-71
2023/06/28 02:04:33;;;;;;;0.00;0.00;;;;;;;;;;1724438;28;20288;-71
2023/06/28 02:05:24;;;;;;;0.00;0.00;;;;;;;;;;1724684;28;20625;-71
2023/06/28 02:06:16;;;;;;;0.00;0.00;;;;;;;;;;1726372;28;20589;-70
2023/06/28 02:07:07;;;;;;;0.00;0.00;;;;;;;;;;1725523;28;20930;-70
2023/06/28 02:08:01;;;;;;;0.00;0.00;;;;;;;;;;1725397;28;20582;-70
2023/06/28 02:08:52;;;;;;;0.00;0.00;;;;;;;;;;1725395;28;20211;-70
2023/06/28 02:09:45;;;;;;;0.00;0.00;;;;;;;;;;1723280;28;20269;-70
2023/06/28 02:10:36;;;;;;;0.00;0.00;;;;;;;;;;1725486;28;20211;-70
2023/06/28 02:11:28;;;;;;;0.00;0.00;;;;;;;;;;1725295;28;20247;-71
2023/06/28 02:12:19;;;;;;;0.00;0.00;;;;;;;;;;1721097;28;20245;-72
2023/06/28 02:13:11;;;;;;;0.00;0.00;;;;;;;;;;1725484;28;20236;-72
2023/06/28 02:14:02;;;;;;;0.00;0.00;;;;;;;;;;1725850;28;20236;-72
2023/06/28 02:14:54;;;;;;;0.00;0.00;;;;;;;;;;1725495;28;20630;-72
2023/06/28 02:15:45;;;;;;;0.00;0.00;;;;;;;;;;1725731;28;20247;-72
2023/06/28 02:16:37;;;;;;;0.00;0.00;;;;;;;;;;1725737;28;20205;-72
2023/06/28 02:17:31;;;;;;;0.00;0.00;;;;;;;;;;1725300;28;20711;-72
2023/06/28 02:18:24;;;;;;;0.00;0.00;;;;;;;;;;1726092;28;20205;-72
2023/06/28 02:19:16;;;;;;;0.00;0.00;;;;;;;;;;1725308;28;20205;-72
2023/06/28 02:20:10;;;;;;;0.00;0.00;;;;;;;;;;1723232;28;20207;-72
2023/06/28 02:21:01;;;;;;;0.00;0.00;;;;;;;;;;1725555;28;20678;-72
2023/06/28 02:21:53;;;;;;;0.00;0.00;;;;;;;;;;1725612;28;20207;-72
2023/06/28 02:22:44;;;;;;;0.00;0.00;;;;;;;;;;1725681;28;20210;-72
2023/06/28 02:23:36;;;;;;;0.00;0.00;;;;;;;;;;1724605;28;20226;-72
2023/06/28 02:24:27;;;;;;;0.00;0.00;;;;;;;;;;1724378;28;20679;-72
2023/06/28 02:25:21;;;;;;;0.00;0.00;;;;;;;;;;1726896;28;20644;-72
2023/06/28 02:26:12;;;;;;;0.00;0.00;;;;;;;;;;1725061;28;20267;-72
2023/06/28 02:27:04;;;;;;;0.00;0.00;;;;;;;;;;1726266;28;20217;-72
2023/06/28 02:27:55;;;;;;;0.00;0.00;;;;;;;;;;1725342;28;20414;-72
2023/06/28 02:28:46;;;;;;;0.00;0.00;;;;;;;;;;1725953;28;23248;-71
2023/06/28 02:29:38;;;;;;;0.00;0.00;;;;;;;;;;1725600;28;20197;-71
2023/06/28 02:30:30;;;;;;;0.00;0.00;;;;;;;;;;1725852;28;20213;-71
2023/06/28 02:31:22;;;;;;;0.00;0.00;;;;;;;;;;1726168;28;20224;-71
2023/06/28 02:32:13;;;;;;;0.00;0.00;;;;;;;;;;1725468;28;20308;-71
2023/06/28 02:33:05;;;;;;;0.00;0.00;;;;;;;;;;1725687;28;20210;-71
2023/06/28 02:33:56;;;;;;;0.00;0.00;;;;;;;;;;1725390;28;20822;-71
2023/06/28 02:34:48;;;;;;;0.00;0.00;;;;;;;;;;1722775;28;20239;-71
2023/06/28 02:35:39;;;;;;;0.00;0.00;;;;;;;;;;1726044;28;20205;-71
2023/06/28 02:36:30;;;;;;;0.00;0.00;;;;;;;;;;1725276;28;20196;-71
2023/06/28 02:37:22;;;;;;;0.00;0.00;;;;;;;;;;1726194;28;20288;-71
2023/06/28 02:38:13;;;;;;;0.00;0.00;;;;;;;;;;1725483;28;20220;-71
2023/06/28 02:39:05;;;;;;;0.00;0.00;;;;;;;;;;1723046;28;20594;-71
2023/06/28 02:39:56;;;;;;;0.00;0.00;;;;;;;;;;1725417;28;20210;-71
2023/06/28 02:40:49;;;;;;;0.00;0.00;;;;;;;;;;1725522;28;20216;-71
2023/06/28 02:41:40;;;;;;;0.00;0.00;;;;;;;;;;1725150;28;20206;-71
2023/06/28 02:42:31;;;;;;;0.00;0.00;;;;;;;;;;1725189;28;20247;-71
2023/06/28 02:43:23;;;;;;;0.00;0.00;;;;;;;;;;1725953;28;20205;-71
2023/06/28 02:44:14;;;;;;;0.00;0.00;;;;;;;;;;1722718;28;20221;-71
2023/06/28 02:45:07;;;;;;;0.00;0.00;;;;;;;;;;1725731;28;20209;-71
2023/06/28 02:45:58;;;;;;;0.00;0.00;;;;;;;;;;1724887;28;20224;-71
2023/06/28 02:46:50;;;;;;;0.00;0.00;;;;;;;;;;1725321;28;20212;-71
2023/06/28 02:47:41;;;;;;;0.00;0.00;;;;;;;;;;1725128;28;20209;-71
2023/06/28 02:48:33;;;;;;;0.00;0.00;;;;;;;;;;1724763;28;20291;-71
2023/06/28 02:49:24;;;;;;;0.00;0.00;;;;;;;;;;1724092;28;20598;-71
2023/06/28 02:50:16;;;;;;;0.00;0.00;;;;;;;;;;1722875;28;20216;-71
2023/06/28 02:51:07;;;;;;;0.00;0.00;;;;;;;;;;1724604;28;20902;-71
2023/06/28 02:51:59;;;;;;;0.00;0.00;;;;;;;;;;1725750;28;20208;-71
2023/06/28 02:52:50;;;;;;;0.00;0.00;;;;;;;;;;1724783;28;20211;-71
2023/06/28 02:53:42;;;;;;;0.00;0.00;;;;;;;;;;1725453;28;20324;-71
2023/06/28 02:54:33;;;;;;;0.00;0.00;;;;;;;;;;1724655;28;20817;-71
2023/06/28 02:55:25;;;;;;;0.00;0.00;;;;;;;;;;1726007;28;20653;-71
2023/06/28 02:56:18;;;;;;;0.00;0.00;;;;;;;;;;1725005;28;20778;-71
2023/06/28 02:57:10;;;;;;;0.00;0.00;;;;;;;;;;1725060;28;20209;-71
2023/06/28 02:58:01;;;;;;;0.00;0.00;;;;;;;;;;1725118;28;20212;-71
2023/06/28 02:58:53;;;;;;;0.00;0.00;;;;;;;;;;1725147;28;20425;-71
2023/06/28 02:59:44;;;;;;;0.00;0.00;;;;;;;;;;1722879;28;20209;-71
2023/06/28 03:00:38;;;;;;;0.00;0.00;;;;;;;;;;1725509;28;20201;-71
2023/06/28 03:01:30;;;;;;;0.00;0.00;;;;;;;;;;1724942;28;20240;-71
2023/06/28 03:02:22;;;;;;;0.00;0.00;;;;;;;;;;1725641;28;20205;-71
2023/06/28 03:03:13;;;;;;;0.00;0.00;;;;;;;;;;1724876;28;20213;-71
2023/06/28 03:04:05;;;;;;;0.00;0.00;;;;;;;;;;1723065;28;20686;-71
2023/06/28 03:04:56;;;;;;;0.00;0.00;;;;;;;;;;1724865;28;20263;-71
2023/06/28 03:05:48;;;;;;;0.00;0.00;;;;;;;;;;1726618;28;21097;-71
2023/06/28 03:06:41;;;;;;;0.00;0.00;;;;;;;;;;1725249;28;20205;-71
2023/06/28 03:07:33;;;;;;;0.00;0.00;;;;;;;;;;1724976;28;20593;-71
2023/06/28 03:08:24;;;;;;;0.00;0.00;;;;;;;;;;1725718;28;20421;-71
2023/06/28 03:09:16;;;;;;;0.00;0.00;;;;;;;;;;1724881;28;20274;-71
2023/06/28 03:10:08;;;;;;;0.00;0.00;;;;;;;;;;1725605;28;20236;-71
2023/06/28 03:11:00;;;;;;;0.00;0.00;;;;;;;;;;1725085;28;20256;-71
2023/06/28 03:11:52;;;;;;;0.00;0.00;;;;;;;;;;1724967;28;20205;-71
2023/06/28 03:12:44;;;;;;;0.00;0.00;;;;;;;;;;1724827;28;20654;-71
2023/06/28 03:13:36;;;;;;;0.00;0.00;;;;;;;;;;1724297;28;20253;-72
2023/06/28 03:14:28;;;;;;;0.00;0.00;;;;;;;;;;1723985;28;20535;-72
2023/06/28 03:15:20;;;;;;;0.00;0.00;;;;;;;;;;1723650;28;20270;-72
2023/06/28 03:16:12;;;;;;;0.00;0.00;;;;;;;;;;1724641;28;20216;-72
2023/06/28 03:17:05;;;;;;;0.00;0.00;;;;;;;;;;1725343;28;20286;-72
2023/06/28 03:17:57;;;;;;;0.00;0.00;;;;;;;;;;1724787;28;20856;-72
2023/06/28 03:18:48;;;;;;;0.00;0.00;;;;;;;;;;1725134;28;20281;-72
2023/06/28 03:19:40;;;;;;;0.00;0.00;;;;;;;;;;1724945;28;20588;-72
2023/06/28 03:20:31;;;;;;;0.00;0.00;;;;;;;;;;1725480;28;20217;-72
2023/06/28 03:21:23;;;;;;;0.00;0.00;;;;;;;;;;1725509;28;20204;-72
2023/06/28 03:22:14;;;;;;;0.00;0.00;;;;;;;;;;1724601;28;20307;-72
2023/06/28 03:23:06;;;;;;;0.00;0.00;;;;;;;;;;1725234;28;20658;-72
2023/06/28 03:23:57;;;;;;;0.00;0.00;;;;;;;;;;1724700;28;20231;-72
2023/06/28 03:24:49;;;;;;;0.00;0.00;;;;;;;;;;1722452;28;20257;-72
2023/06/28 03:25:40;;;;;;;0.00;0.00;;;;;;;;;;1725362;28;20213;-72
2023/06/28 03:26:32;;;;;;;0.00;0.00;;;;;;;;;;1724730;28;20521;-71
2023/06/28 03:27:24;;;;;;;0.00;0.00;;;;;;;;;;1725598;28;20274;-71
2023/06/28 03:28:17;;;;;;;0.00;0.00;;;;;;;;;;1724710;28;20236;-71
2023/06/28 03:29:08;;;;;;;0.00;0.00;;;;;;;;;;1724971;28;20661;-71
2023/06/28 03:30:02;;;;;;;0.00;0.00;;;;;;;;;;1725138;28;20292;-71
2023/06/28 03:30:53;;;;;;;0.00;0.00;;;;;;;;;;1724749;28;20208;-71
2023/06/28 03:31:45;;;;;;;0.00;0.00;;;;;;;;;;1725086;28;20647;-72
2023/06/28 03:32:37;;;;;;;0.00;0.00;;;;;;;;;;1723165;28;20327;-72
2023/06/28 03:33:29;;;;;;;0.00;0.00;;;;;;;;;;1724959;28;20201;-72
2023/06/28 03:34:20;;;;;;;0.00;0.00;;;;;;;;;;1722767;28;20604;-72
2023/06/28 03:35:12;;;;;;;0.00;0.00;;;;;;;;;;1725250;28;20213;-72
2023/06/28 03:36:03;;;;;;;0.00;0.00;;;;;;;;;;1724646;28;20282;-72
2023/06/28 03:36:55;;;;;;;0.00;0.00;;;;;;;;;;1725080;28;20212;-72
2023/06/28 03:37:50;;;;;;;0.00;0.00;;;;;;;;;;1724516;28;20292;-72
2023/06/28 03:38:42;;;;;;;0.00;0.00;;;;;;;;;;1724949;28;20504;-72
2023/06/28 03:39:33;;;;;;;0.00;0.00;;;;;;;;;;1724086;28;20205;-72
2023/06/28 03:40:25;;;;;;;0.00;0.00;;;;;;;;;;1723871;28;20673;-72
2023/06/28 03:41:16;;;;;;;0.00;0.00;;;;;;;;;;1724361;28;20269;-72
2023/06/28 03:42:08;;;;;;;0.00;0.00;;;;;;;;;;1724982;28;20706;-72
2023/06/28 03:43:00;;;;;;;0.00;0.00;;;;;;;;;;1724583;28;20533;-72
2023/06/28 03:43:52;;;;;;;0.00;0.00;;;;;;;;;;1722581;28;20221;-72
2023/06/28 03:44:43;;;;;;;0.00;0.00;;;;;;;;;;1722666;28;20209;-72
2023/06/28 03:45:36;;;;;;;0.00;0.00;;;;;;;;;;1724170;28;20694;-72
2023/06/28 03:46:27;;;;;;;0.00;0.00;;;;;;;;;;1724442;28;20224;-72
2023/06/28 03:47:19;;;;;;;0.00;0.00;;;;;;;;;;1725126;28;20296;-72
2023/06/28 03:48:10;;;;;;;0.00;0.00;;;;;;;;;;1724534;28;20243;-72
2023/06/28 03:49:02;;;;;;;0.00;0.00;;;;;;;;;;1725143;28;20236;-72
2023/06/28 03:49:53;;;;;;;0.00;0.00;;;;;;;;;;1722029;28;20691;-72
2023/06/28 03:50:45;;;;;;;0.00;0.00;;;;;;;;;;1724960;28;20540;-72
2023/06/28 03:51:37;;;;;;;0.00;0.00;;;;;;;;;;1724678;28;20209;-72
2023/06/28 03:52:29;;;;;;;0.00;0.00;;;;;;;;;;1724775;28;20216;-72
2023/06/28 03:53:20;;;;;;;0.00;0.00;;;;;;;;;;1724948;28;20277;-72
2023/06/28 03:54:12;;;;;;;0.00;0.00;;;;;;;;;;1722207;28;20217;-72
2023/06/28 03:55:03;;;;;;;0.00;0.00;;;;;;;;;;1722293;28;20746;-72
2023/06/28 03:55:55;;;;;;;0.00;0.00;;;;;;;;;;1724667;28;20201;-72
2023/06/28 03:56:46;;;;;;;0.00;0.00;;;;;;;;;;1724512;28;20200;-72
2023/06/28 03:57:38;;;;;;;0.00;0.00;;;;;;;;;;1724733;28;20244;-72
2023/06/28 03:58:30;;;;;;;0.00;0.00;;;;;;;;;;1724728;28;20262;-72
2023/06/28 03:59:22;;;;;;;0.00;0.00;;;;;;;;;;1724831;28;20208;-72
2023/06/28 04:00:15;;;;;;;0.00;0.00;;;;;;;;;;1722396;28;20225;-72
2023/06/28 04:01:07;;;;;;;0.00;0.00;;;;;;;;;;1724575;28;20778;-72
2023/06/28 04:01:58;;;;;;;0.00;0.00;;;;;;;;;;1725014;28;20205;-72
2023/06/28 04:02:50;;;;;;;0.00;0.00;;;;;;;;;;1724144;28;20481;-72
2023/06/28 04:03:41;;;;;;;0.00;0.00;;;;;;;;;;1725042;28;20205;-72
2023/06/28 04:04:33;;;;;;;0.00;0.00;;;;;;;;;;1723332;28;20284;-71
2023/06/28 04:05:24;;;;;;;0.00;0.00;;;;;;;;;;1723774;28;20571;-71
2023/06/28 04:06:16;;;;;;;0.00;0.00;;;;;;;;;;1724499;28;20213;-71
2023/06/28 04:07:07;;;;;;;0.00;0.00;;;;;;;;;;1724544;28;20217;-71
2023/06/28 04:08:01;;;;;;;0.00;0.00;;;;;;;;;;1724622;28;20222;-71
2023/06/28 04:08:52;;;;;;;0.00;0.00;;;;;;;;;;1724619;28;20209;-71
2023/06/28 04:09:44;;;;;;;0.00;0.00;;;;;;;;;;1722586;28;20317;-71
2023/06/28 04:10:37;;;;;;;0.00;0.00;;;;;;;;;;1724837;28;20535;-71
2023/06/28 04:11:28;;;;;;;0.00;0.00;;;;;;;;;;1724825;28;20204;-71
2023/06/28 04:12:20;;;;;;;0.00;0.00;;;;;;;;;;1720273;28;20214;-71
2023/06/28 04:13:12;;;;;;;0.00;0.00;;;;;;;;;;1724435;28;20202;-71
2023/06/28 04:14:05;;;;;;;0.00;0.00;;;;;;;;;;1724859;28;20216;-71
2023/06/28 04:14:57;;;;;;;0.00;0.00;;;;;;;;;;1724408;28;20479;-72
2023/06/28 04:15:48;;;;;;;0.00;0.00;;;;;;;;;;1721059;28;20214;-71
2023/06/28 04:16:40;;;;;;;0.00;0.00;;;;;;;;;;1722550;28;20822;-71
2023/06/28 04:17:31;;;;;;;0.00;0.00;;;;;;;;;;1724086;28;20215;-71
2023/06/28 04:18:23;;;;;;;0.10;0.10;;;;;;;;;;1725279;28;20677;-71
2023/06/28 04:19:14;;;;;;;0.00;0.00;;;;;;;;;;1724426;28;20286;-71
2023/06/28 04:20:07;;;;;;;0.00;0.00;;;;;;;;;;1722416;28;20227;-71
2023/06/28 04:20:58;;;;;;;0.00;0.00;;;;;;;;;;1724537;28;20626;-71
2023/06/28 04:21:50;;;;;;;0.00;0.00;;;;;;;;;;1723536;28;20233;-71
2023/06/28 04:22:41;;;;;;;0.00;0.00;;;;;;;;;;1717872;28;20356;-71
2023/06/28 04:23:33;;;;;;;0.00;0.00;;;;;;;;;;1718004;28;20208;-71
2023/06/28 04:24:24;;;;;;;0.00;0.00;;;;;;;;;;1717297;28;20219;-71
2023/06/28 04:25:16;;;;;;;0.00;0.00;;;;;;;;;;1715878;28;20304;-71
2023/06/28 04:26:07;;;;;;;0.00;0.00;;;;;;;;;;1717540;28;20274;-71
2023/06/28 04:27:00;;;;;;;0.00;0.00;;;;;;;;;;1718338;28;20213;-71
2023/06/28 04:27:51;;;;;;;0.00;0.00;;;;;;;;;;1717552;28;20423;-71
2023/06/28 04:28:43;;;;;;;0.00;0.00;;;;;;;;;;1718147;28;20205;-71
2023/06/28 04:29:35;;;;;;;0.00;0.00;;;;;;;;;;1716875;28;20316;-71
2023/06/28 04:30:27;;;;;;;0.00;0.00;;;;;;;;;;1717106;28;20270;-71
2023/06/28 04:31:19;;;;;;;0.00;0.00;;;;;;;;;;1718002;28;20246;-71
2023/06/28 04:32:22;;;;;;;0.00;0.00;;;;;;;;;;1717805;28;20222;-71
2023/06/28 04:33:18;;;;;;;0.00;0.00;;;;;;;;;;1717933;28;20216;-71
2023/06/28 04:34:10;;;;;;;0.00;0.00;;;;;;;;;;1717949;28;20595;-71
2023/06/28 04:35:01;;;;;;;0.00;0.00;;;;;;;;;;1717779;28;20460;-71
2023/06/28 04:35:56;;;;;;;0.00;0.00;;;;;;;;;;1717821;28;20531;-71
2023/06/28 04:36:49;;;;;;;0.00;0.00;;;;;;;;;;1718171;28;20209;-71
2023/06/28 04:37:43;;;;;;;0.00;0.00;;;;;;;;;;1717972;28;20282;-71
2023/06/28 04:38:34;;;;;;;0.00;0.00;;;;;;;;;;1717795;28;20210;-71
2023/06/28 04:39:26;;;;;;;0.00;0.00;;;;;;;;;;1718142;28;20212;-71
2023/06/28 04:40:17;;;;;;;0.00;0.00;;;;;;;;;;1715685;28;20227;-71
2023/06/28 04:41:09;;;;;;;0.00;0.00;;;;;;;;;;1717499;28;20300;-71
2023/06/28 04:42:00;;;;;;;0.00;0.00;;;;;;;;;;1718239;28;20248;-71
2023/06/28 04:42:52;;;;;;;0.00;0.00;;;;;;;;;;1717555;28;20627;-71
2023/06/28 04:43:43;;;;;;;0.00;0.00;;;;;;;;;;1716403;28;20216;-72
2023/06/28 04:44:41;;;;;;;0.00;0.00;;;;;;;;;;1716341;28;20314;-72
2023/06/28 04:45:36;;;;;;;0.00;0.00;;;;;;;;;;1717459;28;20213;-72
2023/06/28 04:46:28;;;;;;;0.00;0.00;;;;;;;;;;1718221;28;20669;-72
2023/06/28 04:47:19;;;;;;;0.00;0.00;;;;;;;;;;1718336;28;20359;-71
2023/06/28 04:48:11;;;;;;;0.00;0.00;;;;;;;;;;1718031;28;20216;-71
2023/06/28 04:49:02;;;;;;;0.00;0.00;;;;;;;;;;1715743;28;20348;-71
2023/06/28 04:49:55;;;;;;;0.00;0.00;;;;;;;;;;1715290;28;20318;-71
2023/06/28 04:50:47;;;;;;;0.00;0.00;;;;;;;;;;1718238;28;20210;-71
2023/06/28 04:51:39;;;;;;;0.00;0.00;;;;;;;;;;1718164;28;20271;-71
2023/06/28 04:52:30;;;;;;;0.00;0.00;;;;;;;;;;1718060;28;20635;-71
2023/06/28 04:53:22;;;;;;;0.00;0.00;;;;;;;;;;1718451;28;20236;-71
2023/06/28 04:54:15;;;;;;;0.00;0.00;;;;;;;;;;1715623;28;20277;-71
2023/06/28 04:55:07;;;;;;;0.00;0.00;;;;;;;;;;1718435;28;20320;-71
2023/06/28 04:56:00;;;;;;;0.00;0.00;;;;;;;;;;1718273;28;20208;-71
2023/06/28 04:56:52;;;;;;;0.00;0.00;;;;;;;;;;1718491;28;20205;-71
2023/06/28 04:57:43;;;;;;;0.00;0.00;;;;;;;;;;1719741;28;20205;-71
2023/06/28 04:58:37;;;;;;;0.00;0.00;;;;;;;;;;1719951;28;20209;-71
2023/06/28 04:59:28;;;;;;;0.00;0.00;;;;;;;;;;1719770;28;20217;-71
2023/06/28 05:00:22;;;;;;;0.00;0.00;;;;;;;;;;1718118;28;20212;-71
2023/06/28 05:01:13;;;;;;;0.00;0.00;;;;;;;;;;1719255;28;20225;-71
2023/06/28 05:02:05;;;;;;;0.00;0.00;;;;;;;;;;1719964;28;20212;-71
2023/06/28 05:02:57;;;;;;;0.00;0.00;;;;;;;;;;1719213;28;20220;-71
2023/06/28 05:03:49;;;;;;;0.00;0.00;;;;;;;;;;1719939;28;20212;-71
2023/06/28 05:04:41;;;;;;;0.00;0.00;;;;;;;;;;1719185;28;20215;-71
2023/06/28 05:05:33;;;;;;;0.00;0.00;;;;;;;;;;1719572;28;20224;-71
2023/06/28 05:06:25;;;;;;;0.00;0.00;;;;;;;;;;1719907;28;20217;-72
2023/06/28 05:07:17;;;;;;;0.00;0.00;;;;;;;;;;1719232;28;20283;-72
2023/06/28 05:08:09;;;;;;;0.00;0.00;;;;;;;;;;1719243;28;20223;-72
2023/06/28 05:09:01;;;;;;;0.00;0.00;;;;;;;;;;1714792;28;20324;-72
2023/06/28 05:09:54;;;;;;;0.00;0.00;;;;;;;;;;1719255;28;20602;-72
2023/06/28 05:10:46;;;;;;;0.00;0.00;;;;;;;;;;1719706;28;20205;-72
2023/06/28 05:11:37;;;;;;;0.00;0.00;;;;;;;;;;1719034;28;20209;-72